createdAt,value
2022-10-19T00:02:15.931Z,9.40
2022-10-19T00:07:18.092Z,9.02
2022-10-19T00:12:20.226Z,7.35
2022-10-19T00:17:22.536Z,7.22
2022-10-19T00:22:24.940Z,11.57
2022-10-19T00:27:27.105Z,7.70
2022-10-19T00:32:29.340Z,8.98
2022-10-19T00:37:31.578Z,8.95
2022-10-19T00:42:34.034Z,8.00
2022-10-19T00:47:36.347Z,8.18
2022-10-19T00:52:38.762Z,9.18
2022-10-19T00:57:41.131Z,6.97
2022-10-19T01:02:43.692Z,7.90
2022-10-19T01:07:46.009Z,6.30
2022-10-19T01:13:20.297Z,6.50
2022-10-19T01:18:31.827Z,7.47
2022-10-19T01:23:55.374Z,6.15
2022-10-19T01:29:17.785Z,6.70
2022-10-19T01:34:34.304Z,7.43
2022-10-19T01:39:52.435Z,8.88
2022-10-19T01:45:06.179Z,7.85
2022-10-19T01:50:36.469Z,7.45
2022-10-19T01:55:43.518Z,7.45
2022-10-19T02:00:50.065Z,6.82
2022-10-19T02:05:54.437Z,6.13
2022-10-19T02:10:59.365Z,6.70
2022-10-19T02:16:05.779Z,10.85
2022-10-19T02:21:09.718Z,6.13
2022-10-19T02:26:12.357Z,7.57
2022-10-19T02:31:14.590Z,8.13
2022-10-19T02:36:17.671Z,10.00
2022-10-19T02:41:46.003Z,8.60
2022-10-19T02:47:06.881Z,7.13
2022-10-19T02:52:11.453Z,8.38
2022-10-19T02:57:23.013Z,7.15
2022-10-19T03:02:26.070Z,6.90
2022-10-19T03:07:29.595Z,10.10
2022-10-19T03:12:32.140Z,8.50
2022-10-19T03:17:34.727Z,9.82
2022-10-19T03:22:37.454Z,5.72
2022-10-19T03:27:39.529Z,7.75
2022-10-19T03:32:41.811Z,7.00
2022-10-19T03:37:44.093Z,7.60
2022-10-19T03:42:46.206Z,7.25
2022-10-19T03:47:51.635Z,5.65
2022-10-19T03:52:55.717Z,7.28
2022-10-19T03:57:58.410Z,6.78
2022-10-19T04:03:00.741Z,8.15
2022-10-19T04:08:02.838Z,6.97
2022-10-19T04:13:04.898Z,7.75
2022-10-19T04:18:09.746Z,8.93
2022-10-19T04:23:12.080Z,14.23
2022-10-19T04:28:14.335Z,13.95
2022-10-19T04:33:16.545Z,14.32
2022-10-19T04:38:20.680Z,7.80
2022-10-19T04:43:23.309Z,12.30
2022-10-19T04:55:04.895Z,10.18
2022-10-19T05:00:08.351Z,17.38
2022-10-19T05:05:11.150Z,14.45
2022-10-19T05:10:13.489Z,11.63
2022-10-19T05:15:15.651Z,10.88
2022-10-19T05:20:18.130Z,10.35
2022-10-19T05:25:20.310Z,9.50
2022-10-19T05:30:22.441Z,11.10
2022-10-19T05:35:24.923Z,19.63
2022-10-19T05:40:27.674Z,11.68
2022-10-19T05:45:29.770Z,10.13
2022-10-19T05:50:31.845Z,14.18
2022-10-19T05:55:37.147Z,15.73
2022-10-19T06:00:39.499Z,11.32
2022-10-19T06:05:41.590Z,10.27
2022-10-19T06:10:45.504Z,11.02
2022-10-19T06:15:51.337Z,8.75
2022-10-19T06:20:54.081Z,9.02
2022-10-19T06:25:56.466Z,11.27
2022-10-19T06:30:59.858Z,17.15
2022-10-19T06:36:17.478Z,6.10
2022-10-19T06:41:20.755Z,6.05
2022-10-19T06:46:27.707Z,4.80
2022-10-19T06:51:32.374Z,3.58
2022-10-19T06:56:34.577Z,2.83
2022-10-19T07:01:36.893Z,2.17
2022-10-19T07:06:39.100Z,6.55
2022-10-19T07:11:45.728Z,2.90
2022-10-19T07:16:50.293Z,3.40
2022-10-19T07:21:53.122Z,4.45
2022-10-19T07:26:55.204Z,3.83
2022-10-19T07:31:57.278Z,4.15
2022-10-19T07:36:59.520Z,7.03
2022-10-19T07:42:01.774Z,4.22
2022-10-19T07:47:05.065Z,5.30
2022-10-19T07:52:07.106Z,5.93
2022-10-19T07:57:12.542Z,4.30
2022-10-19T08:02:16.942Z,2.40
2022-10-19T08:07:19.350Z,2.45
2022-10-19T08:12:21.569Z,3.58
2022-10-19T08:17:23.838Z,4.88
2022-10-19T08:22:26.074Z,4.75
2022-10-19T08:27:29.349Z,4.63
2022-10-19T08:32:31.785Z,3.90
2022-10-19T08:37:44.410Z,3.78
2022-10-19T08:42:57.953Z,3.28
2022-10-19T08:48:22.877Z,4.07
2022-10-19T08:53:37.789Z,6.38
2022-10-19T08:58:57.779Z,5.00
2022-10-19T09:04:04.388Z,3.03
2022-10-19T09:09:07.045Z,4.57
2022-10-19T09:14:26.104Z,5.40
2022-10-19T09:19:31.167Z,2.72
2022-10-19T09:24:44.339Z,3.67
2022-10-19T09:29:54.389Z,7.10
2022-10-19T09:35:27.975Z,2.85
2022-10-19T09:40:31.214Z,3.72
2022-10-19T09:45:41.201Z,4.40
2022-10-19T09:50:45.010Z,3.90
2022-10-19T09:56:27.130Z,3.65
2022-10-19T10:01:40.196Z,5.63
2022-10-19T10:06:48.765Z,2.05
2022-10-19T10:11:52.119Z,4.20
2022-10-19T10:17:16.361Z,7.15
2022-10-19T10:22:27.534Z,4.13
2022-10-19T10:27:33.505Z,4.53
2022-10-19T10:32:48.040Z,4.95
2022-10-19T10:37:51.035Z,2.40
2022-10-19T10:42:55.311Z,4.65
2022-10-19T10:47:59.053Z,3.70
2022-10-19T10:53:04.881Z,5.45
2022-10-19T10:58:25.461Z,2.63
2022-10-19T11:03:33.045Z,4.05
2022-10-19T11:08:38.495Z,3.63
2022-10-19T11:14:02.455Z,4.95
2022-10-19T11:19:23.138Z,19.92
2022-10-19T11:30:29.596Z,4.97
2022-10-19T11:36:12.749Z,8.35
2022-10-19T11:41:18.890Z,5.40
2022-10-19T11:46:35.184Z,4.15
2022-10-19T11:52:02.586Z,5.97
2022-10-19T11:57:20.682Z,24.60
2022-10-19T12:02:26.277Z,11.55
2022-10-19T12:07:46.746Z,9.20
2022-10-19T12:13:15.390Z,8.80
2022-10-19T12:18:20.731Z,6.05
2022-10-19T12:23:39.387Z,7.18
2022-10-19T12:28:47.329Z,7.93
2022-10-19T12:33:59.931Z,6.57
2022-10-19T12:39:02.231Z,7.63
2022-10-19T12:44:10.462Z,7.38
2022-10-19T12:49:30.992Z,7.10
2022-10-19T12:54:36.468Z,4.88
2022-10-19T12:59:38.924Z,5.45
2022-10-19T13:04:53.421Z,8.05
2022-10-19T13:10:05.766Z,7.95
2022-10-19T13:15:37.258Z,5.53
2022-10-19T13:25:43.607Z,5.68
2022-10-19T13:30:45.698Z,3.42
2022-10-19T13:35:47.925Z,9.18
2022-10-19T13:40:50.078Z,3.78
2022-10-19T13:46:04.243Z,7.25
2022-10-19T13:51:20.433Z,2.00
2022-10-19T13:56:28.644Z,6.88
2022-10-19T14:01:52.552Z,3.92
2022-10-19T14:07:41.209Z,10.98
2022-10-19T14:12:45.156Z,22.27
2022-10-19T14:17:47.630Z,5.70
2022-10-19T14:22:49.848Z,17.25
2022-10-19T14:27:58.644Z,12.70
2022-10-19T14:33:07.556Z,35.70
2022-10-19T14:38:19.643Z,8.30
2022-10-19T14:43:30.481Z,22.88
2022-10-19T14:48:34.742Z,60.35
2022-10-19T14:53:42.477Z,8.73
2022-10-19T14:59:04.900Z,25.35
2022-10-19T15:04:08.300Z,6.80
2022-10-19T15:09:37.122Z,26.70
2022-10-19T15:14:47.358Z,19.35
2022-10-19T15:19:49.437Z,16.98
2022-10-19T15:24:59.852Z,35.72
2022-10-19T15:30:26.881Z,17.17
2022-10-19T15:35:31.805Z,13.77
2022-10-19T15:40:37.277Z,16.70
2022-10-19T15:45:39.556Z,17.17
2022-10-19T15:50:48.635Z,19.88
2022-10-19T15:55:50.928Z,26.05
2022-10-19T16:00:53.168Z,33.08
2022-10-19T16:05:55.428Z,36.47
2022-10-19T16:10:57.709Z,48.75
2022-10-19T16:16:11.312Z,48.60
2022-10-19T16:21:15.442Z,40.33
2022-10-19T16:26:18.097Z,27.27
2022-10-19T16:31:20.493Z,28.73
2022-10-19T16:36:23.851Z,30.05
2022-10-19T16:41:30.045Z,29.00
2022-10-19T16:46:37.665Z,44.47
2022-10-19T16:51:41.442Z,18.85
2022-10-19T16:56:46.067Z,30.35
2022-10-19T17:01:48.659Z,30.90
2022-10-19T17:06:50.769Z,27.30
2022-10-19T17:11:52.831Z,18.48
2022-10-19T17:16:55.103Z,25.70
2022-10-19T17:21:59.343Z,15.52
2022-10-19T17:27:03.538Z,21.30
2022-10-19T17:32:05.884Z,21.48
2022-10-19T17:37:08.285Z,19.55
2022-10-19T17:42:10.378Z,17.85
2022-10-19T17:47:12.470Z,21.25
2022-10-19T17:52:14.492Z,13.52
2022-10-19T17:57:16.706Z,16.48
2022-10-19T18:02:18.758Z,16.50
2022-10-19T18:07:22.377Z,15.80
2022-10-19T18:12:24.554Z,19.60
2022-10-19T18:17:27.933Z,19.95
2022-10-19T18:22:30.395Z,18.73
2022-10-19T18:27:32.724Z,17.63
2022-10-19T18:32:37.782Z,39.25
2022-10-19T18:37:40.087Z,23.42
2022-10-19T18:42:42.350Z,20.00
2022-10-19T18:47:44.449Z,24.55
2022-10-19T18:52:46.666Z,20.80
2022-10-19T18:57:48.961Z,19.75
2022-10-19T19:02:55.558Z,22.73
2022-10-19T19:07:57.849Z,23.05
2022-10-19T19:13:00.170Z,19.10
2022-10-19T19:18:02.274Z,22.33
2022-10-19T19:23:04.421Z,19.90
2022-10-19T19:28:06.875Z,16.52
2022-10-19T19:33:09.457Z,16.63
2022-10-19T19:38:12.402Z,36.97
2022-10-19T19:43:16.321Z,17.42
2022-10-19T19:48:18.463Z,21.48
2022-10-19T19:53:20.982Z,13.57
2022-10-19T19:58:23.149Z,13.40
2022-10-19T20:03:25.357Z,14.32
2022-10-19T20:08:27.422Z,13.35
2022-10-19T20:13:30.592Z,17.55
2022-10-19T20:18:32.830Z,20.95
2022-10-19T20:23:34.914Z,14.70
2022-10-19T20:28:36.950Z,12.95
2022-10-19T20:33:40.535Z,14.77
2022-10-19T20:38:52.059Z,13.82
2022-10-19T20:43:55.537Z,16.58
2022-10-19T20:49:01.379Z,20.58
2022-10-19T20:54:07.265Z,17.10
2022-10-19T20:59:13.819Z,13.77
2022-10-19T21:04:16.962Z,14.82
2022-10-19T21:09:23.834Z,13.88
2022-10-19T21:14:28.855Z,16.90
2022-10-19T21:19:31.389Z,13.88
2022-10-19T21:24:36.548Z,16.25
2022-10-19T21:29:38.915Z,14.88
2022-10-19T21:34:41.131Z,14.60
2022-10-19T21:39:43.411Z,13.18
2022-10-19T21:44:45.451Z,18.80
2022-10-19T21:49:47.829Z,19.77
2022-10-19T21:54:49.879Z,14.68
2022-10-19T21:59:51.955Z,13.68
2022-10-19T22:04:54.117Z,15.05
2022-10-19T22:09:56.909Z,15.43
2022-10-19T22:14:59.021Z,17.48
2022-10-19T22:20:01.099Z,14.45
2022-10-19T22:25:03.606Z,14.68
2022-10-19T22:30:06.149Z,15.60
2022-10-19T22:35:08.623Z,13.73
2022-10-19T22:40:11.110Z,18.13
2022-10-19T22:45:13.253Z,13.32
2022-10-19T22:50:15.483Z,17.02
2022-10-19T22:55:17.643Z,14.93
2022-10-19T23:00:20.414Z,21.00
2022-10-19T23:05:22.692Z,16.88
2022-10-19T23:10:24.864Z,17.63
2022-10-19T23:15:27.058Z,16.33
2022-10-19T23:20:29.107Z,16.38
2022-10-19T23:30:34.315Z,16.60
2022-10-19T23:35:36.359Z,17.70
2022-10-19T23:40:38.445Z,17.02
2022-10-19T23:45:40.605Z,16.65
2022-10-19T23:50:42.733Z,17.33
2022-10-19T23:55:44.784Z,16.23
